Flight Track Log - Related Links

Times and Time Zones

All times are in EDT time to prevent confusion due to time zone crossing. See the N710VL flight status page for this flight to view local times or setup timezone preferences in your user account.

Time Position Orientation Groundspeed Altitude Reporting Facility
EDT Latitude Longitude Course Direction KTS MPH feet Rate Location/Type
Thu 01:48:23 PM 33.5786 -86.7517 97° East 152 175 1,300  Level Atlanta Center
Thu 01:49:42 PM 33.5733 -86.7017 97° East 175 201 4,900 2,388 Climbing Atlanta Center
Thu 01:50:01 PM 33.5675 -86.6914 124° Southeast 160 184 5,200 1,747 Climbing Atlanta Center
Thu 01:51:01 PM 33.5158 -86.6650 157° South 180 207 7,200 1,950 Climbing Atlanta Center
Thu 01:52:01 PM 33.4575 -86.6531 170° South 200 230 9,100 1,850 Climbing Atlanta Center
Thu 01:53:01 PM 33.3975 -86.6364 167° South 214 246 10,900 950 Climbing Atlanta Center
Thu 01:54:01 PM 33.3247 -86.6169 167° South 246 283 11,000 100 Climbing Atlanta Center
Thu 01:55:01 PM 33.2333 -86.5944 168° South 283 326 11,100 50 Climbing Atlanta Center
Thu 01:56:01 PM 33.1503 -86.5819 173° South 299 344 11,100  Level Atlanta Center
Thu 01:57:01 PM 33.0692 -86.5647 170° South 304 350 11,100  Level Atlanta Center
Thu 01:58:01 PM 32.9881 -86.5475 170° South 304 350 11,100  Level Atlanta Center
Thu 01:59:01 PM 32.9047 -86.5353 173° South 299 344 11,100 -650 Level Atlanta Center
Thu 02:00:01 PM 32.8233 -86.5353 180° South 294 338 9,800 -1,400 Descending Atlanta Center
Thu 02:01:01 PM 32.7503 -86.5383 182° South 284 327 8,300 -1,400 Descending Atlanta Center
Thu 02:02:01 PM 32.6792 -86.5411 182° South 278 320 7,000 -1,450 Descending Atlanta Center
Thu 02:03:01 PM 32.6061 -86.5514 187° South 273 314 5,400 -1,550 Descending Atlanta Center
Thu 02:04:01 PM 32.5408 -86.5717 195° South 263 303 3,900 -1,200 Descending Atlanta Center
Thu 02:05:01 PM 32.4758 -86.5897 193° South 256 295 3,000 -900 Descending Atlanta Center
Thu 02:07:00 PM 32.5969 -86.5552 North  Level FlightAware Approximate
Thu 02:14:00 PM 32.7437 -86.4581 166° South  Level FlightAware Approximate
Thu 02:15:00 PM 32.6786 -86.4405 168° South  Level FlightAware Approximate
Thu 02:16:00 PM 32.6133 -86.4241 168° South  Level FlightAware Approximate
Thu 02:17:00 PM 32.5480 -86.4078 168° South  Level FlightAware Approximate
Thu 02:18:00 PM 32.4830 -86.3899 166° South  Level FlightAware Approximate
Thu 02:19:00 PM 32.4183 -86.3705 166° South  Level FlightAware Approximate
Thu 02:20:00 PM 32.3535 -86.3511 166° South  Level FlightAware Approximate

Login

Don't have an account? Register now (free) for customized features, flight alerts, and more!